createdAt,value
2022-11-24T00:01:28.359Z,96701.29
2022-11-24T00:04:05.601Z,96702.56
2022-11-24T00:06:35.845Z,96701.95
2022-11-24T00:09:05.776Z,96702.11
2022-11-24T00:11:36.445Z,96709.80
2022-11-24T00:14:06.379Z,96707.81
2022-11-24T00:16:37.241Z,96702.98
2022-11-24T00:19:09.595Z,96697.14
2022-11-24T00:21:38.505Z,96706.11
2022-11-24T00:24:06.817Z,96718.41
2022-11-24T00:26:37.584Z,96720.67
2022-11-24T00:29:07.815Z,96714.83
2022-11-24T00:31:41.508Z,96714.58
2022-11-24T00:34:14.858Z,96713.08
2022-11-24T00:36:43.384Z,96720.45
2022-11-24T00:39:14.060Z,96723.88
2022-11-24T00:41:43.328Z,96720.58
2022-11-24T00:44:11.494Z,96725.04
2022-11-24T00:46:40.064Z,96724.96
2022-11-24T00:49:08.356Z,96721.23
2022-11-24T00:51:36.504Z,96724.31
2022-11-24T00:54:04.602Z,96724.33
2022-11-24T00:56:33.520Z,96726.24
2022-11-24T00:59:01.598Z,96730.64
2022-11-24T01:01:31.258Z,96728.41
2022-11-24T01:04:03.280Z,96731.02
2022-11-24T01:06:32.706Z,96732.28
2022-11-24T01:09:01.453Z,96730.22
2022-11-24T01:11:53.330Z,96729.14
2022-11-24T01:14:23.376Z,96736.04
2022-11-24T01:16:52.277Z,96733.52
2022-11-24T01:19:21.415Z,96734.99
2022-11-24T01:21:49.870Z,96733.90
2022-11-24T01:24:18.419Z,96739.88
2022-11-24T01:26:46.611Z,96741.20
2022-11-24T01:29:14.750Z,96742.38
2022-11-24T01:31:42.872Z,96737.88
2022-11-24T01:34:11.047Z,96736.30
2022-11-24T01:36:39.980Z,96741.14
2022-11-24T01:39:08.127Z,96741.38
2022-11-24T01:41:36.423Z,96744.98
2022-11-24T01:44:27.506Z,96744.96
2022-11-24T01:47:00.276Z,96738.58
2022-11-24T01:50:14.404Z,96739.06
2022-11-24T01:52:46.541Z,96738.31
2022-11-24T01:55:23.034Z,96739.02
2022-11-24T01:58:01.712Z,96738.91
2022-11-24T02:00:29.830Z,96743.80
2022-11-24T02:02:58.964Z,96740.37
2022-11-24T02:05:52.623Z,96734.48
2022-11-24T02:08:51.884Z,96736.55
2022-11-24T02:11:22.655Z,96735.09
2022-11-24T02:13:53.338Z,96738.14
2022-11-24T02:16:21.738Z,96741.17
2022-11-24T02:18:49.915Z,96742.28
2022-11-24T02:21:18.242Z,96745.02
2022-11-24T02:24:09.247Z,96747.69
2022-11-24T02:26:46.497Z,96749.15
2022-11-24T02:29:15.344Z,96749.80
2022-11-24T02:31:58.131Z,96752.00
2022-11-24T02:34:26.447Z,96749.15
2022-11-24T02:36:54.582Z,96750.90
2022-11-24T02:39:22.745Z,96745.66
2022-11-24T02:41:56.931Z,96747.96
2022-11-24T02:44:31.111Z,96748.45
2022-11-24T02:47:11.434Z,96745.70
2022-11-24T02:49:39.716Z,96741.88
2022-11-24T02:52:08.352Z,96741.66
2022-11-24T02:54:36.949Z,96739.94
2022-11-24T02:57:05.626Z,96742.78
2022-11-24T02:59:33.745Z,96748.80
2022-11-24T03:02:01.989Z,96748.66
2022-11-24T03:04:30.257Z,96751.58
2022-11-24T03:06:58.332Z,96748.65
2022-11-24T03:09:26.910Z,96746.14
2022-11-24T03:11:54.966Z,96749.02
2022-11-24T03:14:23.078Z,96749.02
2022-11-24T03:16:51.231Z,96749.97
2022-11-24T03:19:19.350Z,96751.93
2022-11-24T03:21:47.559Z,96751.83
2022-11-24T03:24:15.896Z,96751.28
2022-11-24T03:26:44.029Z,96747.59
2022-11-24T03:29:12.163Z,96748.35
2022-11-24T03:31:40.311Z,96748.38
2022-11-24T03:34:08.885Z,96752.52
2022-11-24T03:36:37.004Z,96752.56
2022-11-24T03:39:05.352Z,96751.58
2022-11-24T03:41:33.441Z,96752.70
2022-11-24T03:44:01.551Z,96753.71
2022-11-24T03:46:29.785Z,96751.08
2022-11-24T03:48:57.953Z,96755.35
2022-11-24T03:51:26.064Z,96754.15
2022-11-24T03:53:54.262Z,96757.74
2022-11-24T03:56:22.366Z,96755.40
2022-11-24T03:58:50.481Z,96755.66
2022-11-24T04:01:18.635Z,96756.04
2022-11-24T04:03:46.803Z,96755.05
2022-11-24T04:06:14.878Z,96756.80
2022-11-24T04:08:43.732Z,96758.81
2022-11-24T04:11:31.797Z,96761.33
2022-11-24T04:14:00.006Z,96768.06
2022-11-24T04:16:28.165Z,96770.34
2022-11-24T04:18:56.323Z,96771.17
2022-11-24T04:21:24.489Z,96769.77
2022-11-24T04:23:52.738Z,96772.30
2022-11-24T04:26:20.910Z,96773.23
2022-11-24T04:28:49.017Z,96773.72
2022-11-24T04:31:17.905Z,96770.98
2022-11-24T04:33:46.034Z,96771.33
2022-11-24T04:36:14.195Z,96771.91
2022-11-24T04:39:23.122Z,96774.73
2022-11-24T04:41:30.684Z,96775.48
2022-11-24T04:43:58.783Z,96774.58
2022-11-24T04:46:27.015Z,96778.30
2022-11-24T04:48:55.178Z,96778.98
2022-11-24T04:51:23.243Z,96776.22
2022-11-24T04:53:51.373Z,96778.98
2022-11-24T04:56:19.632Z,96780.97
2022-11-24T04:58:50.553Z,96784.36
2022-11-24T05:01:18.860Z,96783.48
2022-11-24T05:03:47.032Z,96787.65
2022-11-24T05:06:15.160Z,96789.08
2022-11-24T05:08:43.278Z,96793.20
2022-11-24T05:11:11.435Z,96795.08
2022-11-24T05:13:39.541Z,96798.21
2022-11-24T05:16:08.429Z,96796.10
2022-11-24T05:18:37.886Z,96799.09
2022-11-24T05:21:06.284Z,96799.34
2022-11-24T05:23:34.391Z,96798.80
2022-11-24T05:26:02.907Z,96804.45
2022-11-24T05:28:31.145Z,96805.54
2022-11-24T05:31:03.972Z,96806.88
2022-11-24T05:33:33.566Z,96810.39
2022-11-24T05:36:07.022Z,96811.73
2022-11-24T05:38:35.653Z,96818.75
2022-11-24T05:41:05.830Z,96818.73
2022-11-24T05:43:33.949Z,96821.88
2022-11-24T05:46:02.149Z,96825.27
2022-11-24T05:48:30.298Z,96827.92
2022-11-24T05:50:58.981Z,96833.83
2022-11-24T05:53:27.274Z,96839.20
2022-11-24T05:55:55.439Z,96841.33
2022-11-24T05:58:23.620Z,96848.41
2022-11-24T06:00:51.768Z,96848.41
2022-11-24T06:03:19.937Z,96852.17
2022-11-24T06:05:48.257Z,96859.74
2022-11-24T06:08:16.379Z,96865.11
2022-11-24T06:10:44.499Z,96865.17
2022-11-24T06:13:12.656Z,96868.11
2022-11-24T06:15:41.434Z,96872.89
2022-11-24T06:18:09.551Z,96875.14
2022-11-24T06:20:37.712Z,96875.84
2022-11-24T06:23:06.074Z,96877.93
2022-11-24T06:25:34.212Z,96877.88
2022-11-24T06:28:05.164Z,96882.48
2022-11-24T06:30:33.262Z,96883.33
2022-11-24T06:33:01.497Z,96885.70
2022-11-24T06:35:29.680Z,96888.01
2022-11-24T06:37:57.828Z,96894.27
2022-11-24T06:40:25.985Z,96892.44
2022-11-24T06:42:55.058Z,96894.42
2022-11-24T06:45:23.458Z,96899.67
2022-11-24T06:47:55.916Z,96903.33
2022-11-24T06:50:26.898Z,96902.84
2022-11-24T06:52:57.480Z,96907.46
2022-11-24T06:55:25.618Z,96912.46
2022-11-24T06:57:53.808Z,96917.66
2022-11-24T07:00:22.276Z,96922.55
2022-11-24T07:02:50.425Z,96926.02
2022-11-24T07:05:18.728Z,96929.66
2022-11-24T07:07:46.943Z,96935.15
2022-11-24T07:10:15.204Z,96931.03
2022-11-24T07:12:43.543Z,96935.20
2022-11-24T07:15:12.028Z,96931.70
2022-11-24T07:17:40.786Z,96936.17
2022-11-24T07:20:09.981Z,96939.29
2022-11-24T07:22:38.275Z,96936.27
2022-11-24T07:25:09.742Z,96940.25
2022-11-24T07:27:37.890Z,96938.80
2022-11-24T07:30:08.472Z,96936.70
2022-11-24T07:32:36.598Z,96937.71
2022-11-24T07:35:05.477Z,96945.71
2022-11-24T07:37:33.603Z,96948.17
2022-11-24T07:40:01.807Z,96948.02
2022-11-24T07:42:30.019Z,96955.14
2022-11-24T07:44:58.087Z,96957.33
2022-11-24T07:47:26.296Z,96960.39
2022-11-24T07:49:54.549Z,96962.23
2022-11-24T07:52:26.577Z,96968.16
2022-11-24T07:54:54.788Z,96965.19
2022-11-24T07:57:23.586Z,96970.68
2022-11-24T07:59:51.676Z,96969.80
2022-11-24T08:02:19.896Z,96969.31
2022-11-24T08:04:48.171Z,96973.08
2022-11-24T08:07:16.333Z,96976.02
2022-11-24T08:09:44.433Z,96979.34
2022-11-24T08:12:12.527Z,96975.74
2022-11-24T08:14:40.625Z,96976.91
2022-11-24T08:17:08.810Z,96978.98
2022-11-24T08:19:37.064Z,96982.10
2022-11-24T08:22:05.173Z,96980.91
2022-11-24T08:24:33.611Z,96986.63
2022-11-24T08:27:02.005Z,96988.42
2022-11-24T08:29:31.264Z,96987.53
2022-11-24T08:31:59.490Z,96989.67
2022-11-24T08:34:27.763Z,96989.02
2022-11-24T08:36:55.875Z,96995.63
2022-11-24T08:39:24.066Z,96996.75
2022-11-24T08:41:52.351Z,96997.27
2022-11-24T08:44:20.577Z,97000.04
2022-11-24T08:46:49.921Z,97002.00
2022-11-24T08:49:18.920Z,97002.05
2022-11-24T08:51:48.584Z,97000.18
2022-11-24T08:54:18.700Z,97000.90
2022-11-24T08:56:49.368Z,97001.92
2022-11-24T08:59:17.535Z,97002.65
2022-11-24T09:01:45.811Z,97006.40
2022-11-24T09:04:14.005Z,97004.91
2022-11-24T09:06:42.147Z,97007.52
2022-11-24T09:09:11.119Z,97006.99
2022-11-24T09:11:39.255Z,97008.83
2022-11-24T09:14:07.435Z,97006.98
2022-11-24T09:16:36.150Z,97007.30
2022-11-24T09:19:08.172Z,97001.27
2022-11-24T09:21:40.632Z,97001.02
2022-11-24T09:24:10.319Z,97000.48
2022-11-24T09:26:43.137Z,97003.21
2022-11-24T09:29:14.438Z,96997.77
2022-11-24T09:31:42.570Z,96999.84
2022-11-24T09:34:14.849Z,96997.08
2022-11-24T09:36:43.305Z,97001.08
2022-11-24T09:39:12.209Z,97000.79
2022-11-24T09:42:09.688Z,97002.16
2022-11-24T09:45:22.792Z,97005.64
2022-11-24T09:48:21.678Z,97007.73
2022-11-24T09:50:51.938Z,97008.98
2022-11-24T09:53:38.020Z,97008.38
2022-11-24T09:56:25.019Z,97009.67
2022-11-24T09:59:10.641Z,97009.74
2022-11-24T10:01:42.831Z,97009.53
2022-11-24T10:04:21.268Z,97011.53
2022-11-24T10:07:08.000Z,97012.80
2022-11-24T10:09:45.358Z,97011.91
2022-11-24T10:12:19.198Z,97012.92
2022-11-24T10:15:02.241Z,97015.69
2022-11-24T10:18:04.252Z,97017.48
2022-11-24T10:21:00.574Z,97018.98
2022-11-24T10:23:53.084Z,97019.75
2022-11-24T10:27:05.489Z,97018.58
2022-11-24T10:29:40.885Z,97023.48
2022-11-24T10:32:19.079Z,97026.23
2022-11-24T10:34:50.593Z,97030.99
2022-11-24T10:37:43.448Z,97032.55
2022-11-24T10:40:56.953Z,97031.13
2022-11-24T10:43:28.567Z,97034.10
2022-11-24T10:46:10.990Z,97034.38
2022-11-24T10:48:52.734Z,97036.72
2022-11-24T10:52:02.111Z,97035.94
2022-11-24T10:54:30.299Z,97037.50
2022-11-24T10:56:58.449Z,97042.66
2022-11-24T10:59:30.987Z,97043.09
2022-11-24T11:01:59.872Z,97039.92
2022-11-24T11:04:35.830Z,97044.83
2022-11-24T11:07:25.355Z,97046.63
2022-11-24T11:10:25.210Z,97047.10
2022-11-24T11:12:53.409Z,97045.77
2022-11-24T11:15:31.486Z,97048.61
2022-11-24T11:18:01.375Z,97051.26
2022-11-24T11:20:34.628Z,97049.32
2022-11-24T11:23:14.780Z,97049.11
2022-11-24T11:25:43.773Z,97053.55
2022-11-24T11:28:25.479Z,97054.01
2022-11-24T11:31:19.859Z,97056.95
2022-11-24T11:34:10.527Z,97058.83
2022-11-24T11:36:50.002Z,97055.77
2022-11-24T11:39:32.789Z,97056.30
2022-11-24T11:42:59.916Z,97055.40
2022-11-24T11:45:31.959Z,97059.15
2022-11-24T11:48:03.293Z,97059.48
2022-11-24T11:51:22.976Z,97063.79
2022-11-24T11:53:46.528Z,97059.16
2022-11-24T11:56:31.154Z,97064.61
2022-11-24T11:59:23.940Z,97066.45
2022-11-24T12:01:55.043Z,97070.81
2022-11-24T12:04:35.310Z,97073.58
2022-11-24T12:07:09.379Z,97078.61
2022-11-24T12:09:49.886Z,97082.41
2022-11-24T12:12:42.438Z,97086.98
2022-11-24T12:15:26.745Z,97085.78
2022-11-24T12:18:33.525Z,97086.30
2022-11-24T12:21:26.699Z,97088.89
2022-11-24T12:24:03.890Z,97087.69
2022-11-24T12:27:05.565Z,97092.36
2022-11-24T12:30:11.848Z,97093.84
2022-11-24T12:33:27.820Z,97096.96
2022-11-24T12:36:16.673Z,97103.59
2022-11-24T12:39:05.370Z,97104.95
2022-11-24T12:42:05.126Z,97107.50
2022-11-24T12:44:44.986Z,97113.20
2022-11-24T12:47:42.104Z,97114.86
2022-11-24T12:50:19.102Z,97114.16
2022-11-24T12:53:00.510Z,97120.64
2022-11-24T12:55:32.303Z,97119.40
2022-11-24T12:58:29.937Z,97120.82
2022-11-24T13:01:16.519Z,97125.63
2022-11-24T13:04:13.584Z,97122.51
2022-11-24T13:07:10.027Z,97127.30
2022-11-24T13:09:58.383Z,97126.35
2022-11-24T13:12:26.600Z,97126.92
2022-11-24T13:14:55.311Z,97131.78
2022-11-24T13:17:40.601Z,97130.98
2022-11-24T13:20:19.937Z,97131.39
2022-11-24T13:22:54.559Z,97136.77
2022-11-24T13:25:28.627Z,97139.54
2022-11-24T13:28:02.358Z,97140.11
2022-11-24T13:30:33.401Z,97142.05
2022-11-24T13:33:16.854Z,97141.85
2022-11-24T13:36:04.366Z,97147.33
2022-11-24T13:38:44.980Z,97143.64
2022-11-24T13:41:41.526Z,97146.52
2022-11-24T13:44:15.422Z,97148.20
2022-11-24T13:47:18.641Z,97152.06
2022-11-24T13:49:46.768Z,97150.98
2022-11-24T13:52:36.656Z,97156.39
2022-11-24T13:55:14.095Z,97161.41
2022-11-24T13:57:56.604Z,97156.36
2022-11-24T14:00:26.062Z,97158.90
2022-11-24T14:03:06.543Z,97163.88
2022-11-24T14:05:45.910Z,97165.25
2022-11-24T14:08:24.582Z,97163.45
2022-11-24T14:10:54.878Z,97168.70
2022-11-24T14:13:23.304Z,97169.67
2022-11-24T14:16:06.740Z,97173.83
2022-11-24T14:18:38.033Z,97176.70
2022-11-24T14:21:23.904Z,97182.40
2022-11-24T14:24:19.358Z,97186.04
2022-11-24T14:26:47.731Z,97191.18
2022-11-24T14:29:24.512Z,97191.32
2022-11-24T14:31:54.459Z,97190.66
2022-11-24T14:34:25.067Z,97191.54
2022-11-24T14:36:54.826Z,97190.21
2022-11-24T14:39:26.560Z,97195.70
2022-11-24T14:42:04.986Z,97200.14
2022-11-24T14:44:42.170Z,97198.70
2022-11-24T14:47:19.551Z,97202.70
2022-11-24T14:49:47.720Z,97200.66
2022-11-24T14:52:19.611Z,97199.95
2022-11-24T14:55:03.947Z,97204.96
2022-11-24T14:57:45.667Z,97204.23
2022-11-24T15:00:25.655Z,97210.24
2022-11-24T15:03:05.855Z,97214.57
2022-11-24T15:06:03.825Z,97217.09
2022-11-24T15:08:42.957Z,97217.34
2022-11-24T15:11:11.138Z,97216.95
2022-11-24T15:13:40.500Z,97216.42
2022-11-24T15:16:16.674Z,97222.17
2022-11-24T15:18:56.701Z,97225.85
2022-11-24T15:21:37.321Z,97228.50
2022-11-24T15:24:19.620Z,97226.96
2022-11-24T15:26:47.764Z,97227.70
2022-11-24T15:29:16.033Z,97229.88
2022-11-24T15:31:47.832Z,97232.85
2022-11-24T15:34:20.462Z,97237.64
2022-11-24T15:36:50.486Z,97239.14
2022-11-24T15:39:18.667Z,97242.23
2022-11-24T15:41:46.835Z,97246.04
2022-11-24T15:44:15.232Z,97245.83
2022-11-24T15:46:43.450Z,97246.71
2022-11-24T15:49:11.624Z,97250.93
2022-11-24T15:51:44.456Z,97252.33
2022-11-24T15:54:17.776Z,97259.15
2022-11-24T15:56:46.021Z,97264.88
2022-11-24T15:59:20.280Z,97264.50
2022-11-24T16:01:50.679Z,97270.23
2022-11-24T16:04:18.999Z,97271.95
2022-11-24T16:06:48.023Z,97278.27
2022-11-24T16:09:17.186Z,97278.41
2022-11-24T16:11:45.380Z,97280.33
2022-11-24T16:14:13.592Z,97278.39
2022-11-24T16:16:42.164Z,97283.30
2022-11-24T16:19:10.872Z,97286.46
2022-11-24T16:21:38.998Z,97283.14
2022-11-24T16:24:07.686Z,97283.73
2022-11-24T16:26:35.794Z,97288.05
2022-11-24T16:29:04.250Z,97289.39
2022-11-24T16:31:33.038Z,97290.05
2022-11-24T16:34:01.238Z,97287.25
2022-11-24T16:36:29.578Z,97288.78
2022-11-24T16:39:00.374Z,97288.53
2022-11-24T16:41:28.534Z,97290.06
2022-11-24T16:43:56.947Z,97293.94
2022-11-24T16:46:25.377Z,97298.41
2022-11-24T16:48:57.279Z,97296.42
2022-11-24T16:51:27.787Z,97295.84
2022-11-24T16:54:02.104Z,97302.73
2022-11-24T16:56:31.495Z,97299.73
2022-11-24T16:58:59.684Z,97302.27
2022-11-24T17:01:28.095Z,97298.30
2022-11-24T17:03:56.382Z,97300.04
2022-11-24T17:06:25.383Z,97302.59
2022-11-24T17:08:55.632Z,97307.72
2022-11-24T17:11:26.047Z,97309.45
2022-11-24T17:13:56.691Z,97313.36
2022-11-24T17:16:26.242Z,97313.46
2022-11-24T17:18:54.533Z,97315.05
2022-11-24T17:21:26.263Z,97319.27
2022-11-24T17:24:00.027Z,97319.61
2022-11-24T17:26:28.713Z,97323.27
2022-11-24T17:28:57.791Z,97321.88
2022-11-24T17:31:37.615Z,97321.75
2022-11-24T17:34:07.204Z,97327.76
2022-11-24T17:36:35.503Z,97331.29
2022-11-24T17:39:05.815Z,97326.98
2022-11-24T17:41:34.734Z,97322.84
2022-11-24T17:44:03.716Z,97323.53
2022-11-24T17:46:32.070Z,97324.77
2022-11-24T17:49:00.377Z,97327.80
2022-11-24T17:51:28.728Z,97326.59
2022-11-24T17:53:57.522Z,97327.55
2022-11-24T17:56:27.833Z,97328.54
2022-11-24T17:59:00.952Z,97329.40
2022-11-24T18:01:31.400Z,97329.84
2022-11-24T18:04:00.099Z,97330.46
2022-11-24T18:06:28.957Z,97331.17
2022-11-24T18:08:58.078Z,97334.23
2022-11-24T18:11:32.198Z,97335.54
2022-11-24T18:14:03.484Z,97340.23
2022-11-24T18:16:34.478Z,97340.13
2022-11-24T18:19:09.052Z,97334.39
2022-11-24T18:21:40.728Z,97337.11
2022-11-24T18:24:10.508Z,97337.15
2022-11-24T18:26:40.688Z,97336.89
2022-11-24T18:29:10.871Z,97336.47
2022-11-24T18:31:39.344Z,97339.77
2022-11-24T18:34:08.152Z,97339.05
2022-11-24T18:36:36.481Z,97340.25
2022-11-24T18:39:07.940Z,97339.87
2022-11-24T18:41:36.631Z,97343.17
2022-11-24T18:44:07.996Z,97345.02
2022-11-24T18:46:37.839Z,97350.64
2022-11-24T18:49:07.123Z,97349.04
2022-11-24T18:51:35.804Z,97352.36
2022-11-24T18:54:05.466Z,97355.87
2022-11-24T18:56:33.999Z,97354.34
2022-11-24T18:59:02.384Z,97353.40
2022-11-24T19:01:30.727Z,97357.07
2022-11-24T19:04:02.119Z,97360.86
2022-11-24T19:06:34.064Z,97360.83
2022-11-24T19:09:10.924Z,97364.02
2022-11-24T19:11:41.856Z,97363.76
2022-11-24T19:14:14.439Z,97365.06
2022-11-24T19:16:44.122Z,97368.34
2022-11-24T19:19:12.753Z,97370.52
2022-11-24T19:21:41.616Z,97369.52
2022-11-24T19:24:10.336Z,97375.17
2022-11-24T19:26:39.763Z,97378.57
2022-11-24T19:29:08.712Z,97375.45
2022-11-24T19:31:39.397Z,97383.91
2022-11-24T19:34:08.115Z,97385.21
2022-11-24T19:36:36.725Z,97384.73
2022-11-24T19:39:05.261Z,97386.52
2022-11-24T19:41:34.425Z,97392.73
2022-11-24T19:44:02.660Z,97394.05
2022-11-24T19:46:30.829Z,97401.61
2022-11-24T19:49:01.794Z,97402.09
2022-11-24T19:51:33.289Z,97403.68
2022-11-24T19:54:02.797Z,97408.95
2022-11-24T19:56:34.762Z,97408.01
2022-11-24T19:59:06.433Z,97408.95
2022-11-24T20:01:39.170Z,97411.55
2022-11-24T20:04:13.682Z,97412.45
2022-11-24T20:06:45.364Z,97417.86
2022-11-24T20:09:16.890Z,97420.02
2022-11-24T20:11:45.593Z,97419.92
2022-11-24T20:14:17.474Z,97421.65
2022-11-24T20:16:47.618Z,97424.02
2022-11-24T20:19:17.628Z,97430.28
2022-11-24T20:21:47.834Z,97430.00
2022-11-24T20:24:22.502Z,97433.23
2022-11-24T20:26:58.277Z,97435.64
2022-11-24T20:29:32.229Z,97432.04
2022-11-24T20:32:00.471Z,97434.37
2022-11-24T20:34:28.915Z,97436.85
2022-11-24T20:36:57.097Z,97434.52
2022-11-24T20:39:27.813Z,97439.45
2022-11-24T20:41:56.819Z,97444.44
2022-11-24T20:44:27.361Z,97451.27
2022-11-24T20:46:58.156Z,97455.21
2022-11-24T20:49:27.680Z,97461.58
2022-11-24T20:51:57.215Z,97464.80
2022-11-24T20:54:25.561Z,97467.57
2022-11-24T20:56:53.837Z,97472.52
2022-11-24T20:59:24.552Z,97473.01
2022-11-24T21:01:55.493Z,97475.20
2022-11-24T21:04:26.948Z,97474.24
2022-11-24T21:06:55.624Z,97475.55
2022-11-24T21:09:24.803Z,97476.99
2022-11-24T21:11:54.665Z,97476.11
2022-11-24T21:14:24.382Z,97476.73
2022-11-24T21:16:52.827Z,97478.73
2022-11-24T21:19:21.221Z,97475.80
2022-11-24T21:21:49.454Z,97477.27
2022-11-24T21:24:21.514Z,97476.34
2022-11-24T21:26:52.522Z,97478.42
2022-11-24T21:29:23.416Z,97481.80
2022-11-24T21:31:52.143Z,97483.92
2022-11-24T21:34:20.426Z,97483.05
2022-11-24T21:36:48.574Z,97481.77
2022-11-24T21:39:16.951Z,97484.42
2022-11-24T21:41:45.285Z,97485.33
2022-11-24T21:44:14.173Z,97491.09
2022-11-24T21:46:48.239Z,97490.23
2022-11-24T21:49:20.743Z,97496.91
2022-11-24T21:51:55.106Z,97493.27
2022-11-24T21:54:24.009Z,97501.08
2022-11-24T21:56:53.609Z,97502.29
2022-11-24T21:59:22.377Z,97503.36
2022-11-24T22:01:50.851Z,97511.59
2022-11-24T22:04:18.991Z,97515.55
2022-11-24T22:06:47.097Z,97516.04
2022-11-24T22:09:18.161Z,97515.90
2022-11-24T22:11:49.424Z,97519.77
2022-11-24T22:14:18.138Z,97519.25
2022-11-24T22:16:46.552Z,97519.33
2022-11-24T22:19:14.793Z,97515.71
2022-11-24T22:21:43.096Z,97519.37
2022-11-24T22:24:11.851Z,97518.16
2022-11-24T22:26:39.973Z,97519.52
2022-11-24T22:29:08.494Z,97523.74
2022-11-24T22:31:36.754Z,97523.25
2022-11-24T22:34:04.982Z,97524.98
2022-11-24T22:36:33.146Z,97524.23
2022-11-24T22:39:04.303Z,97527.73
2022-11-24T22:41:35.463Z,97524.77
2022-11-24T22:44:04.884Z,97525.09
2022-11-24T22:46:32.986Z,97524.52
2022-11-24T22:49:01.976Z,97522.27
2022-11-24T22:51:34.805Z,97524.52
2022-11-24T22:54:04.604Z,97527.80
2022-11-24T22:56:34.258Z,97526.55
2022-11-24T22:59:04.514Z,97530.95
2022-11-24T23:01:36.531Z,97529.91
2022-11-24T23:04:04.983Z,97532.70
2022-11-24T23:06:33.845Z,97531.65
2022-11-24T23:09:03.714Z,97535.77
2022-11-24T23:11:38.234Z,97538.55
2022-11-24T23:14:13.126Z,97534.65
2022-11-24T23:16:42.619Z,97537.47
2022-11-24T23:19:10.887Z,97538.02
2022-11-24T23:21:39.178Z,97546.81
2022-11-24T23:24:08.959Z,97550.98
2022-11-24T23:26:40.187Z,97554.42
2022-11-24T23:29:09.723Z,97557.84
2022-11-24T23:31:40.093Z,97556.78
2022-11-24T23:34:08.472Z,97556.09
2022-11-24T23:36:36.678Z,97555.91
2022-11-24T23:39:12.349Z,97557.99
2022-11-24T23:41:41.146Z,97559.23
2022-11-24T23:44:09.319Z,97563.73
2022-11-24T23:46:37.534Z,97567.66
2022-11-24T23:49:05.716Z,97568.48
2022-11-24T23:51:34.245Z,97574.58
2022-11-24T23:54:02.362Z,97578.35
2022-11-24T23:56:33.213Z,97578.28
2022-11-24T23:59:03.782Z,97585.23
